Time;durP1;ratioP1;P1;durP2;ratioP2;P2;SDS_P1;SDS_P2;PMS_P1;PMS_P2;Temp;Humidity;BMP_temperature;BMP_pressure;BME280_temperature;BME280_humidity;BME280_pressure;Samples;Min_cycle;Max_cycle;Signal;HPM_P1;HPM_P2
2022/07/02 00:03:39;;;;;;;0.90;0.90;;;;;;;;;;10255072;28;20044;-82
2022/07/02 00:08:59;;;;;;;1.30;1.20;;;;;;;;;;10242827;28;20067;-83
2022/07/02 00:14:19;;;;;;;1.20;1.10;;;;;;;;;;10234214;28;20036;-82
2022/07/02 00:19:38;;;;;;;1.20;1.02;;;;;;;;;;10249597;28;20411;-82
2022/07/02 00:24:58;;;;;;;1.50;1.40;;;;;;;;;;10244396;28;20055;-82
2022/07/02 00:30:17;;;;;;;1.10;1.00;;;;;;;;;;10268083;28;20050;-82
2022/07/02 00:35:36;;;;;;;0.90;0.90;;;;;;;;;;10254981;28;20043;-83
2022/07/02 00:40:57;;;;;;;0.85;0.85;;;;;;;;;;10256273;28;20110;-82
2022/07/02 00:46:17;;;;;;;0.88;0.88;;;;;;;;;;10246348;28;20558;-82
2022/07/02 00:51:36;;;;;;;0.90;0.90;;;;;;;;;;10244338;28;20039;-82
2022/07/02 00:56:56;;;;;;;0.88;0.88;;;;;;;;;;10228316;28;20048;-82
2022/07/02 01:02:16;;;;;;;1.55;1.00;;;;;;;;;;10245065;28;20439;-82
2022/07/02 01:07:35;;;;;;;0.80;0.80;;;;;;;;;;10245206;28;20487;-82
2022/07/02 01:12:55;;;;;;;0.82;0.82;;;;;;;;;;10246009;28;20094;-82
2022/07/02 01:18:17;;;;;;;1.10;0.82;;;;;;;;;;10235940;28;20035;-82
2022/07/02 01:23:36;;;;;;;0.90;0.90;;;;;;;;;;10228101;28;20056;-82
2022/07/02 01:28:55;;;;;;;0.85;0.82;;;;;;;;;;10239313;28;20051;-83
2022/07/02 01:34:15;;;;;;;0.70;0.70;;;;;;;;;;10241355;28;20102;-83
2022/07/02 01:39:35;;;;;;;0.70;0.70;;;;;;;;;;10250799;28;20046;-82
2022/07/02 01:44:54;;;;;;;0.77;0.77;;;;;;;;;;10249315;28;20106;-82
2022/07/02 01:50:13;;;;;;;0.80;0.80;;;;;;;;;;10258396;28;20039;-82
2022/07/02 01:55:33;;;;;;;0.88;0.88;;;;;;;;;;10268646;28;20569;-83
2022/07/02 02:00:52;;;;;;;0.80;0.80;;;;;;;;;;10234257;28;20110;-82
2022/07/02 02:06:12;;;;;;;1.05;0.90;;;;;;;;;;10225907;28;20044;-83
2022/07/02 02:11:31;;;;;;;0.73;0.73;;;;;;;;;;10217163;28;20040;-82
2022/07/02 02:16:50;;;;;;;0.88;0.88;;;;;;;;;;10235495;28;20054;-83
2022/07/02 02:22:10;;;;;;;0.90;0.90;;;;;;;;;;10240588;28;20035;-82
2022/07/02 02:27:29;;;;;;;0.70;0.70;;;;;;;;;;10225791;28;20047;-83
2022/07/02 02:32:48;;;;;;;0.70;0.70;;;;;;;;;;10250098;28;20090;-83
2022/07/02 02:38:08;;;;;;;0.80;0.80;;;;;;;;;;10242660;28;20121;-82
2022/07/02 02:43:27;;;;;;;0.70;0.70;;;;;;;;;;10238636;28;20054;-82
2022/07/02 02:48:46;;;;;;;1.40;0.65;;;;;;;;;;10259295;28;20039;-82
2022/07/02 02:54:05;;;;;;;0.60;0.60;;;;;;;;;;10246849;28;20043;-82
2022/07/02 02:59:25;;;;;;;0.70;0.70;;;;;;;;;;10261350;28;20050;-82
2022/07/02 03:04:44;;;;;;;0.70;0.70;;;;;;;;;;10251079;28;20136;-82
2022/07/02 03:10:03;;;;;;;0.80;0.80;;;;;;;;;;10224128;28;20047;-82
2022/07/02 03:15:23;;;;;;;0.60;0.60;;;;;;;;;;10234058;28;20043;-82
2022/07/02 03:20:43;;;;;;;0.70;0.70;;;;;;;;;;10243013;28;20047;-82
2022/07/02 03:26:03;;;;;;;0.60;0.60;;;;;;;;;;10209360;29;20048;-83
2022/07/02 03:31:23;;;;;;;1.27;0.60;;;;;;;;;;10244879;28;20047;-82
2022/07/02 03:36:42;;;;;;;0.60;0.60;;;;;;;;;;10223284;29;20452;-83
2022/07/02 03:42:01;;;;;;;2.40;0.70;;;;;;;;;;10234375;28;20028;-82
2022/07/02 03:47:21;;;;;;;1.63;0.90;;;;;;;;;;10250845;28;20051;-83
2022/07/02 03:52:40;;;;;;;0.60;0.60;;;;;;;;;;10241549;28;20043;-82
2022/07/02 03:57:59;;;;;;;0.70;0.70;;;;;;;;;;10248696;28;20051;-83
2022/07/02 04:03:19;;;;;;;0.50;0.50;;;;;;;;;;10226282;28;20047;-82
2022/07/02 04:08:38;;;;;;;0.65;0.60;;;;;;;;;;10239645;28;20050;-82
2022/07/02 04:13:58;;;;;;;1.42;0.60;;;;;;;;;;10245929;28;20051;-82
2022/07/02 04:19:18;;;;;;;0.63;0.63;;;;;;;;;;10264011;28;20039;-82
2022/07/02 04:24:37;;;;;;;0.50;0.50;;;;;;;;;;10242525;28;20496;-82
2022/07/02 04:29:56;;;;;;;0.60;0.60;;;;;;;;;;10230969;28;20050;-83
2022/07/02 04:35:17;;;;;;;0.70;0.70;;;;;;;;;;10242030;28;20045;-82
2022/07/02 04:40:36;;;;;;;0.80;0.65;;;;;;;;;;10230153;28;20484;-82
2022/07/02 04:45:56;;;;;;;0.60;0.60;;;;;;;;;;10265915;28;20047;-83
2022/07/02 04:51:15;;;;;;;0.60;0.60;;;;;;;;;;10229471;28;20095;-82
2022/07/02 04:56:35;;;;;;;0.70;0.60;;;;;;;;;;10242138;28;20043;-82
2022/07/02 05:01:54;;;;;;;0.60;0.60;;;;;;;;;;10222766;28;20047;-82
2022/07/02 05:07:13;;;;;;;0.60;0.60;;;;;;;;;;10231009;28;20055;-83
2022/07/02 05:12:32;;;;;;;0.70;0.70;;;;;;;;;;10230117;28;20040;-82
2022/07/02 05:17:52;;;;;;;0.60;0.60;;;;;;;;;;10244336;28;20428;-82
2022/07/02 05:23:11;;;;;;;1.55;0.70;;;;;;;;;;10232091;28;20540;-82
2022/07/02 05:28:31;;;;;;;0.60;0.60;;;;;;;;;;10226309;28;20036;-82
2022/07/02 05:33:50;;;;;;;0.60;0.60;;;;;;;;;;10229118;29;20722;-83
2022/07/02 05:39:09;;;;;;;0.80;0.80;;;;;;;;;;10240459;28;20039;-83
2022/07/02 05:44:29;;;;;;;0.70;0.70;;;;;;;;;;10231490;28;20039;-82
2022/07/02 05:49:48;;;;;;;0.93;0.60;;;;;;;;;;10228792;28;20376;-82
2022/07/02 05:55:07;;;;;;;0.70;0.70;;;;;;;;;;10225937;28;20047;-83
2022/07/02 06:00:27;;;;;;;0.70;0.70;;;;;;;;;;10220419;28;20502;-82
2022/07/02 06:11:25;;;;;;;0.80;0.60;;;;;;;;;;10230212;28;20043;-82
2022/07/02 06:16:44;;;;;;;1.10;0.85;;;;;;;;;;10227385;28;20043;-82
2022/07/02 06:22:06;;;;;;;0.60;0.60;;;;;;;;;;10225880;28;20411;-82
2022/07/02 06:27:25;;;;;;;1.33;0.60;;;;;;;;;;10226887;28;20047;-82
2022/07/02 06:32:45;;;;;;;0.52;0.52;;;;;;;;;;10227634;28;20043;-82
2022/07/02 06:38:05;;;;;;;0.52;0.52;;;;;;;;;;10255584;28;20052;-82
2022/07/02 06:43:25;;;;;;;0.60;0.60;;;;;;;;;;10242977;28;20051;-82
2022/07/02 06:48:45;;;;;;;0.63;0.63;;;;;;;;;;10212826;28;20095;-82
2022/07/02 06:54:04;;;;;;;0.60;0.60;;;;;;;;;;10212016;28;20043;-82
2022/07/02 06:59:23;;;;;;;0.60;0.60;;;;;;;;;;10236566;28;20047;-82
2022/07/02 07:04:43;;;;;;;0.50;0.50;;;;;;;;;;10233540;28;20099;-82
2022/07/02 07:10:03;;;;;;;0.60;0.60;;;;;;;;;;10234313;28;20035;-82
2022/07/02 07:15:22;;;;;;;0.68;0.57;;;;;;;;;;10247957;28;20485;-82
2022/07/02 07:20:41;;;;;;;1.48;0.63;;;;;;;;;;10215481;28;20032;-82
2022/07/02 07:26:00;;;;;;;0.70;0.70;;;;;;;;;;10214398;28;20050;-82
2022/07/02 07:31:21;;;;;;;0.60;0.60;;;;;;;;;;10231661;29;20183;-82
2022/07/02 07:36:41;;;;;;;0.70;0.70;;;;;;;;;;10235243;29;20043;-82
2022/07/02 07:42:01;;;;;;;1.67;0.80;;;;;;;;;;10224152;29;20526;-82
2022/07/02 07:47:20;;;;;;;1.00;0.70;;;;;;;;;;10244680;28;20052;-82
2022/07/02 07:52:39;;;;;;;0.50;0.50;;;;;;;;;;10210932;29;20063;-83
2022/07/02 07:57:59;;;;;;;0.70;0.60;;;;;;;;;;10232843;28;20043;-82
2022/07/02 08:03:18;;;;;;;2.03;0.80;;;;;;;;;;10218974;29;20499;-83
2022/07/02 08:08:38;;;;;;;2.95;1.77;;;;;;;;;;10219859;29;20036;-82
2022/07/02 08:13:57;;;;;;;1.50;1.40;;;;;;;;;;10204552;29;20047;-82
2022/07/02 08:19:16;;;;;;;1.80;1.30;;;;;;;;;;10215810;28;20400;-82
2022/07/02 08:24:36;;;;;;;1.63;1.50;;;;;;;;;;10225496;28;20127;-82
2022/07/02 08:29:55;;;;;;;3.00;1.77;;;;;;;;;;10255855;28;20044;-82
2022/07/02 08:35:14;;;;;;;1.98;1.67;;;;;;;;;;10229361;28;20073;-82
2022/07/02 08:40:34;;;;;;;2.75;1.67;;;;;;;;;;10222401;28;20044;-81
2022/07/02 08:45:54;;;;;;;3.10;1.92;;;;;;;;;;10227794;28;20608;-82
2022/07/02 08:51:14;;;;;;;2.05;1.63;;;;;;;;;;10207427;28;20047;-81
2022/07/02 08:56:33;;;;;;;2.63;1.88;;;;;;;;;;10236526;28;20038;-82
2022/07/02 09:01:52;;;;;;;4.00;1.70;;;;;;;;;;10218106;28;20104;-82
2022/07/02 09:07:13;;;;;;;2.33;1.85;;;;;;;;;;10196933;29;20107;-82
2022/07/02 09:12:32;;;;;;;1.83;1.60;;;;;;;;;;10205700;28;20043;-83
2022/07/02 09:17:52;;;;;;;2.08;1.40;;;;;;;;;;10211032;28;20047;-82
2022/07/02 09:23:20;;;;;;;1.70;1.60;;;;;;;;;;10209230;29;20613;-82
2022/07/02 09:28:49;;;;;;;2.75;1.60;;;;;;;;;;10230426;28;20749;-82
2022/07/02 09:34:09;;;;;;;2.33;1.60;;;;;;;;;;10233316;28;20059;-81
2022/07/02 09:39:29;;;;;;;2.33;1.65;;;;;;;;;;10226711;28;20036;-82
2022/07/02 09:44:49;;;;;;;2.03;1.58;;;;;;;;;;10211517;28;20044;-82
2022/07/02 09:50:09;;;;;;;2.75;1.75;;;;;;;;;;10212274;28;20050;-83
2022/07/02 09:55:30;;;;;;;1.55;1.45;;;;;;;;;;10213699;28;20039;-82
2022/07/02 10:00:50;;;;;;;1.98;1.33;;;;;;;;;;10233651;28;20498;-82
2022/07/02 10:06:09;;;;;;;1.95;1.38;;;;;;;;;;10210416;28;20399;-83
2022/07/02 10:11:28;;;;;;;2.33;1.70;;;;;;;;;;10215903;28;20040;-83
2022/07/02 10:16:47;;;;;;;1.70;1.58;;;;;;;;;;10193399;29;20036;-82
2022/07/02 10:22:07;;;;;;;2.08;1.58;;;;;;;;;;10231353;28;20043;-83
2022/07/02 10:27:27;;;;;;;2.85;1.70;;;;;;;;;;10215887;28;20390;-83
2022/07/02 10:32:59;;;;;;;1.58;1.38;;;;;;;;;;10242217;28;20051;-82
2022/07/02 10:38:33;;;;;;;1.50;1.40;;;;;;;;;;10219013;28;20098;-83
2022/07/02 10:43:56;;;;;;;2.13;1.55;;;;;;;;;;10234900;28;20466;-82
2022/07/02 10:49:24;;;;;;;1.80;1.58;;;;;;;;;;10224676;28;20047;-83
2022/07/02 10:54:44;;;;;;;3.55;1.75;;;;;;;;;;10231953;28;20673;-82
2022/07/02 11:00:04;;;;;;;3.42;1.30;;;;;;;;;;10223204;28;20048;-82
2022/07/02 11:05:24;;;;;;;2.80;1.48;;;;;;;;;;10224211;28;20059;-82
2022/07/02 11:10:48;;;;;;;1.52;1.33;;;;;;;;;;10222596;28;20043;-82
2022/07/02 11:16:17;;;;;;;1.27;1.17;;;;;;;;;;10214870;29;20055;-81
2022/07/02 11:21:38;;;;;;;1.50;1.30;;;;;;;;;;10243721;28;20511;-83
2022/07/02 11:26:58;;;;;;;2.25;1.48;;;;;;;;;;10218905;29;20063;-83
2022/07/02 11:32:17;;;;;;;1.83;1.40;;;;;;;;;;10223888;28;20044;-84
2022/07/02 11:37:36;;;;;;;1.35;1.25;;;;;;;;;;10210119;29;20059;-84
2022/07/02 11:42:56;;;;;;;3.28;1.50;;;;;;;;;;10216219;29;20044;-84
2022/07/02 11:48:19;;;;;;;4.15;1.63;;;;;;;;;;10224641;29;20140;-86
2022/07/02 11:53:39;;;;;;;3.22;1.52;;;;;;;;;;10234191;28;20403;-86
2022/07/02 11:58:58;;;;;;;1.65;1.48;;;;;;;;;;10231756;28;20055;-85
2022/07/02 12:04:18;;;;;;;2.80;1.63;;;;;;;;;;10246230;28;20039;-86
2022/07/02 12:09:39;;;;;;;1.60;1.50;;;;;;;;;;10252779;28;20062;-85
2022/07/02 12:14:58;;;;;;;2.10;1.50;;;;;;;;;;10227614;28;20106;-84
2022/07/02 12:20:18;;;;;;;3.20;1.63;;;;;;;;;;10226056;28;20036;-84
2022/07/02 12:25:44;;;;;;;1.60;1.50;;;;;;;;;;10215401;28;20052;-85
2022/07/02 12:31:04;;;;;;;1.90;1.65;;;;;;;;;;10232665;28;20426;-84
2022/07/02 12:36:23;;;;;;;2.83;1.25;;;;;;;;;;10215445;28;20296;-83
2022/07/02 12:41:42;;;;;;;1.95;1.63;;;;;;;;;;10207084;28;20044;-83
2022/07/02 12:47:02;;;;;;;1.90;1.50;;;;;;;;;;10201790;29;20120;-83
2022/07/02 12:52:21;;;;;;;1.40;1.23;;;;;;;;;;10202849;28;20044;-83
2022/07/02 12:57:40;;;;;;;1.73;1.40;;;;;;;;;;10223730;28;20036;-84
2022/07/02 13:03:09;;;;;;;1.52;1.30;;;;;;;;;;10208555;28;20040;-83
2022/07/02 13:08:29;;;;;;;2.17;1.40;;;;;;;;;;10214340;28;20450;-84
2022/07/02 13:13:49;;;;;;;3.15;1.20;;;;;;;;;;10198236;28;20435;-83
2022/07/02 13:19:08;;;;;;;1.45;1.13;;;;;;;;;;10209733;28;20380;-84
2022/07/02 13:24:28;;;;;;;1.73;1.25;;;;;;;;;;10210194;29;20067;-84
2022/07/02 13:29:47;;;;;;;1.13;1.02;;;;;;;;;;10209839;28;20056;-84
2022/07/02 13:35:08;;;;;;;1.30;0.90;;;;;;;;;;10225670;28;20392;-84
2022/07/02 13:40:27;;;;;;;3.90;1.23;;;;;;;;;;10223437;28;20692;-84
2022/07/02 13:45:46;;;;;;;5.35;1.38;;;;;;;;;;10217533;28;20078;-85
2022/07/02 13:51:06;;;;;;;1.10;1.00;;;;;;;;;;10234425;28;20091;-86
2022/07/02 13:56:26;;;;;;;1.80;1.40;;;;;;;;;;10212325;28;20407;-85
2022/07/02 14:01:45;;;;;;;1.52;1.23;;;;;;;;;;10224649;28;20103;-84
2022/07/02 14:07:04;;;;;;;2.42;1.25;;;;;;;;;;10239805;28;20049;-85
2022/07/02 14:12:25;;;;;;;1.30;1.20;;;;;;;;;;10235363;28;20070;-85
2022/07/02 14:17:45;;;;;;;1.50;1.40;;;;;;;;;;10235535;28;20111;-84
2022/07/02 14:23:04;;;;;;;1.92;1.52;;;;;;;;;;10201951;28;20076;-84
2022/07/02 14:28:23;;;;;;;2.17;1.20;;;;;;;;;;10216107;28;20051;-84
2022/07/02 14:33:43;;;;;;;2.03;1.30;;;;;;;;;;10223614;28;20509;-83
2022/07/02 14:39:02;;;;;;;1.52;1.30;;;;;;;;;;10201265;28;20047;-83
2022/07/02 14:44:23;;;;;;;2.90;1.30;;;;;;;;;;10206124;29;20181;-83
2022/07/02 14:49:42;;;;;;;1.30;1.20;;;;;;;;;;10213176;28;20043;-83
2022/07/02 14:55:02;;;;;;;1.73;1.08;;;;;;;;;;10212563;28;20055;-83
2022/07/02 15:00:21;;;;;;;2.53;1.30;;;;;;;;;;10219887;28;20484;-83
2022/07/02 15:05:40;;;;;;;1.40;1.30;;;;;;;;;;10201960;29;20488;-84
2022/07/02 15:11:00;;;;;;;1.05;0.95;;;;;;;;;;10203910;28;20427;-84
2022/07/02 15:16:19;;;;;;;1.20;1.10;;;;;;;;;;10224074;28;20036;-83
2022/07/02 15:21:41;;;;;;;1.70;1.17;;;;;;;;;;10226573;28;20036;-83
2022/07/02 15:27:05;;;;;;;2.58;1.20;;;;;;;;;;10191201;29;20052;-83
2022/07/02 15:32:25;;;;;;;2.03;1.20;;;;;;;;;;10206249;29;20138;-82
2022/07/02 15:37:44;;;;;;;1.73;1.10;;;;;;;;;;10219030;29;20050;-83
2022/07/02 15:43:04;;;;;;;2.38;1.40;;;;;;;;;;10205663;29;20051;-83
2022/07/02 15:48:25;;;;;;;1.83;1.40;;;;;;;;;;10191793;29;20056;-82
2022/07/02 15:53:51;;;;;;;1.50;1.23;;;;;;;;;;10192832;29;20118;-83
2022/07/02 15:59:12;;;;;;;2.95;1.23;;;;;;;;;;10230049;28;20047;-82
2022/07/02 16:04:33;;;;;;;3.42;1.10;;;;;;;;;;10219545;29;20051;-83
2022/07/02 16:09:54;;;;;;;1.25;1.15;;;;;;;;;;10216128;28;20044;-82
2022/07/02 16:15:14;;;;;;;1.27;1.17;;;;;;;;;;10221381;28;20042;-83
2022/07/02 16:20:34;;;;;;;1.23;1.13;;;;;;;;;;10234654;28;20055;-83
2022/07/02 16:25:53;;;;;;;2.47;1.17;;;;;;;;;;10210301;28;20043;-83
2022/07/02 16:31:15;;;;;;;1.30;1.20;;;;;;;;;;10211506;29;20036;-82
2022/07/02 16:36:37;;;;;;;1.33;1.23;;;;;;;;;;10224719;29;20043;-83
2022/07/02 16:41:57;;;;;;;1.60;1.30;;;;;;;;;;10212780;28;20056;-83
2022/07/02 16:47:20;;;;;;;2.08;1.30;;;;;;;;;;10213407;29;20095;-82
2022/07/02 16:52:41;;;;;;;1.20;1.10;;;;;;;;;;10230539;28;20095;-82
2022/07/02 16:58:00;;;;;;;1.55;1.20;;;;;;;;;;10217894;28;20047;-83
2022/07/02 17:03:20;;;;;;;1.30;1.20;;;;;;;;;;10227590;28;20039;-83
2022/07/02 17:08:39;;;;;;;4.35;3.95;;;;;;;;;;10240816;28;20054;-83
2022/07/02 17:14:01;;;;;;;3.13;2.50;;;;;;;;;;10213045;28;20102;-83
2022/07/02 17:19:20;;;;;;;3.67;2.42;;;;;;;;;;10223453;28;20090;-83
2022/07/02 17:24:40;;;;;;;4.10;3.35;;;;;;;;;;10224262;28;20052;-82
2022/07/02 17:29:59;;;;;;;5.18;3.85;;;;;;;;;;10205123;28;20435;-82
2022/07/02 17:35:18;;;;;;;3.90;3.58;;;;;;;;;;10218164;28;20407;-82
2022/07/02 17:40:37;;;;;;;3.75;3.35;;;;;;;;;;10240656;28;20464;-82
2022/07/02 17:45:57;;;;;;;3.33;3.08;;;;;;;;;;10232970;28;20047;-82
2022/07/02 17:51:16;;;;;;;3.53;3.22;;;;;;;;;;10202978;29;20491;-83
2022/07/02 17:56:36;;;;;;;7.07;3.30;;;;;;;;;;10230078;28;20043;-82
2022/07/02 18:01:57;;;;;;;3.80;3.40;;;;;;;;;;10221463;28;20050;-83
2022/07/02 18:07:16;;;;;;;3.53;3.22;;;;;;;;;;10200299;28;20492;-82
2022/07/02 18:12:35;;;;;;;3.42;3.00;;;;;;;;;;10236138;28;20046;-82
2022/07/02 18:17:55;;;;;;;3.40;3.10;;;;;;;;;;10224582;28;20031;-82
2022/07/02 18:23:15;;;;;;;3.20;2.90;;;;;;;;;;10211130;28;20577;-83
2022/07/02 18:28:35;;;;;;;3.15;2.53;;;;;;;;;;10220394;28;20040;-83
2022/07/02 18:33:54;;;;;;;2.70;1.88;;;;;;;;;;10217950;28;20041;-83
2022/07/02 18:39:13;;;;;;;1.63;1.52;;;;;;;;;;10217461;28;20044;-83
2022/07/02 18:44:33;;;;;;;1.75;1.65;;;;;;;;;;10207228;28;20048;-82
2022/07/02 18:49:52;;;;;;;3.33;1.50;;;;;;;;;;10211120;28;20044;-82
2022/07/02 18:55:11;;;;;;;3.10;1.83;;;;;;;;;;10199556;28;20054;-82
2022/07/02 19:00:32;;;;;;;1.60;1.50;;;;;;;;;;10196348;28;20041;-83
2022/07/02 19:05:52;;;;;;;1.95;1.67;;;;;;;;;;10222215;28;20047;-82
2022/07/02 19:11:12;;;;;;;3.15;1.55;;;;;;;;;;10208996;28;20419;-82
2022/07/02 19:16:31;;;;;;;2.55;1.55;;;;;;;;;;10201905;28;20048;-82
2022/07/02 19:21:50;;;;;;;1.65;1.40;;;;;;;;;;10219881;28;20047;-82
2022/07/02 19:32:48;;;;;;;1.85;1.75;;;;;;;;;;10192416;29;20066;-82
2022/07/02 19:38:08;;;;;;;1.70;1.60;;;;;;;;;;10211863;29;20048;-82
2022/07/02 19:43:28;;;;;;;1.80;1.70;;;;;;;;;;10219065;29;20036;-82
2022/07/02 19:48:47;;;;;;;1.75;1.65;;;;;;;;;;10211347;29;20050;-82
2022/07/02 19:54:06;;;;;;;1.80;1.70;;;;;;;;;;10217436;29;20043;-82
2022/07/02 19:59:26;;;;;;;1.98;1.63;;;;;;;;;;10222693;29;20044;-83
2022/07/02 20:04:45;;;;;;;2.42;1.88;;;;;;;;;;10219222;29;20048;-82
2022/07/02 20:10:04;;;;;;;1.75;1.65;;;;;;;;;;10233338;28;20040;-82
2022/07/02 20:15:24;;;;;;;3.00;1.95;;;;;;;;;;10220197;28;20048;-83
2022/07/02 20:20:44;;;;;;;2.75;1.83;;;;;;;;;;10221340;28;20051;-83
2022/07/02 20:26:03;;;;;;;2.00;1.90;;;;;;;;;;10202301;28;20119;-82
2022/07/02 20:31:23;;;;;;;1.77;1.67;;;;;;;;;;10219189;28;20039;-83
2022/07/02 20:36:43;;;;;;;2.00;1.85;;;;;;;;;;10209778;28;20472;-82
2022/07/02 20:42:02;;;;;;;2.58;2.00;;;;;;;;;;10214507;28;20047;-82
2022/07/02 20:47:22;;;;;;;2.67;2.00;;;;;;;;;;10202569;29;20055;-82
2022/07/02 20:52:41;;;;;;;1.92;1.83;;;;;;;;;;10199700;28;20036;-82
2022/07/02 20:58:00;;;;;;;2.00;1.90;;;;;;;;;;10223529;28;20388;-82
2022/07/02 21:03:20;;;;;;;1.88;1.70;;;;;;;;;;10204661;29;20048;-82
2022/07/02 21:08:39;;;;;;;2.13;2.03;;;;;;;;;;10206921;28;20040;-82
2022/07/02 21:13:58;;;;;;;2.10;2.00;;;;;;;;;;10197054;28;20043;-82
2022/07/02 21:19:18;;;;;;;2.60;2.20;;;;;;;;;;10220845;28;20380;-82
2022/07/02 21:24:37;;;;;;;4.00;1.92;;;;;;;;;;10202034;29;20054;-82
2022/07/02 21:29:57;;;;;;;3.28;2.63;;;;;;;;;;10216499;28;20036;-82
2022/07/02 21:35:16;;;;;;;3.10;2.80;;;;;;;;;;10206474;28;20044;-82
2022/07/02 21:40:35;;;;;;;2.65;2.45;;;;;;;;;;10224472;28;20040;-82
2022/07/02 21:45:57;;;;;;;3.20;2.90;;;;;;;;;;10228300;28;20043;-82
2022/07/02 21:51:17;;;;;;;4.65;3.15;;;;;;;;;;10231782;28;20094;-82
2022/07/02 21:56:37;;;;;;;3.15;2.85;;;;;;;;;;10214285;29;20044;-82
2022/07/02 22:01:58;;;;;;;3.15;2.78;;;;;;;;;;10242857;28;20044;-82
2022/07/02 22:07:17;;;;;;;3.63;2.60;;;;;;;;;;10217820;28;20055;-82
2022/07/02 22:12:36;;;;;;;3.17;2.78;;;;;;;;;;10242149;28;20075;-82
2022/07/02 22:17:55;;;;;;;3.03;2.65;;;;;;;;;;10231317;28;20046;-82
2022/07/02 22:23:15;;;;;;;2.97;2.72;;;;;;;;;;10227671;28;20051;-82
2022/07/02 22:28:34;;;;;;;3.10;2.80;;;;;;;;;;10247098;28;20094;-82
2022/07/02 22:33:53;;;;;;;3.22;2.70;;;;;;;;;;10226201;28;20040;-82
2022/07/02 22:39:13;;;;;;;2.90;2.60;;;;;;;;;;10232766;28;20039;-82
2022/07/02 22:44:32;;;;;;;3.13;2.75;;;;;;;;;;10239374;28;20051;-82
2022/07/02 22:49:54;;;;;;;2.70;2.50;;;;;;;;;;10250785;28;20047;-82
2022/07/02 22:55:13;;;;;;;3.80;2.60;;;;;;;;;;10234940;28;20407;-83
2022/07/02 23:00:32;;;;;;;2.58;2.38;;;;;;;;;;10242223;28;20363;-82
2022/07/02 23:05:52;;;;;;;2.75;2.55;;;;;;;;;;10237493;28;20062;-82
2022/07/02 23:11:11;;;;;;;2.45;2.25;;;;;;;;;;10250750;28;20051;-82
2022/07/02 23:16:32;;;;;;;2.55;2.35;;;;;;;;;;10241935;28;20376;-82
2022/07/02 23:21:52;;;;;;;2.60;2.40;;;;;;;;;;10237462;28;20090;-82
2022/07/02 23:27:11;;;;;;;2.50;2.30;;;;;;;;;;10219537;29;20047;-82
2022/07/02 23:32:31;;;;;;;3.00;2.63;;;;;;;;;;10231790;28;20047;-82
2022/07/02 23:37:50;;;;;;;2.13;2.03;;;;;;;;;;10258334;28;20062;-82
2022/07/02 23:43:09;;;;;;;2.38;2.20;;;;;;;;;;10242446;28;20098;-82
2022/07/02 23:48:28;;;;;;;2.60;2.40;;;;;;;;;;10226501;28;20046;-83
2022/07/02 23:53:49;;;;;;;2.50;2.30;;;;;;;;;;10252562;28;20043;-83
2022/07/02 23:59:08;;;;;;;2.22;2.05;;;;;;;;;;10254791;28;20043;-82
